This is the latest recevied weather packets stored in our database for station/object KU9TRY. If no packets are shown the sender has not sent any weather packets the latest 10 day(s).
| Time | Temp. | Humidity | Pressure | Rain* | Wind** | Luminosity | Snow |
|---|---|---|---|---|---|---|---|
| 1777294313 | 18.89° C | 78% | 1016.9 hPa | 0 mm | - | 129 W/m² | - |
| 1777293400 | 16.11° C | 89% | 1016.7 hPa | 0 mm | - | 97 W/m² | - |
| 1777293097 | 15.56° C | 91% | 1016.7 hPa | 0 mm | - | 94 W/m² | - |
| 1777292795 | 15° C | 91% | 1016.6 hPa | 0 mm | - | 92 W/m² | - |
| 1777292492 | 13.89° C | 94% | 1016.7 hPa | 0 mm | - | 86 W/m² | - |
| 1777292189 | 13.33° C | 94% | 1016.8 hPa | 0 mm | - | 74 W/m² | - |
| 1777291885 | 13.33° C | 94% | 1017 hPa | 0 mm | - | 64 W/m² | - |
| 1777291581 | 12.78° C | 95% | 1016.9 hPa | 0 mm | - | 59 W/m² | - |
| 1777291278 | 12.78° C | 96% | 1017 hPa | 0 mm | - | 55 W/m² | - |
| 1777290672 | 12.22° C | 95% | 1016.9 hPa | 0 mm | - | 46 W/m² | - |
| 1777290369 | 11.67° C | 96% | 1016.9 hPa | 0 mm | - | 40 W/m² | - |
| 1777290064 | 11.67° C | 97% | 1016.6 hPa | 0 mm | - | 34 W/m² | - |
| 1777289761 | 11.67° C | 97% | 1016.6 hPa | 0 mm | - | 27 W/m² | - |
| 1777289456 | 11.67° C | 97% | 1016.5 hPa | 0 mm | - | 17 W/m² | - |
| 1777289153 | 11.11° C | 97% | 1016.5 hPa | 0 mm | - | 13 W/m² | - |
| 1777288850 | 11.11° C | 97% | 1016.6 hPa | 0 mm | - | 11 W/m² | - |
| 1777285818 | 10.56° C | 97% | 1016 hPa | 0 mm | - | 0 W/m² | - |
| 1777285515 | 10.56° C | 97% | 1016.1 hPa | 0 mm | - | 0 W/m² | - |
| 1777285212 | 10.56° C | 97% | 1016 hPa | 0 mm | - | 0 W/m² | - |
| 1777284910 | 10.56° C | 97% | 1016.4 hPa | 0 mm | - | 0 W/m² | - |
| 1777284607 | 10.56° C | 97% | 1016.5 hPa | 0 mm | - | 0 W/m² | - |
| 1777282485 | 11.11° C | 96% | 1016.2 hPa | 0 mm | - | 0 W/m² | - |
| 1777282183 | 11.11° C | 96% | 1016.2 hPa | 0 mm | - | 0 W/m² | - |
| 1777281880 | 11.11° C | 96% | 1016.2 hPa | 0 mm | - | 0 W/m² | - |
| 1777281577 | 10.56° C | 96% | 1016.2 hPa | 0 mm | - | 0 W/m² | - |
* Rain latest hour (hover to see other rain measurements)
** Current wind speed in m/s (hover to see current wind gust speed)